Time;durP1;ratioP1;P1;durP2;ratioP2;P2;SDS_P1;SDS_P2;PMS_P1;PMS_P2;Temp;Humidity;BMP_temperature;BMP_pressure;BME280_temperature;BME280_humidity;BME280_pressure;Samples;Min_cycle;Max_cycle;Signal;HPM_P1;HPM_P2
2023/03/22 00:01:57;;;;;;;43.00;24.42;;;;;;;;;;5034621;28;20030;-68
2023/03/22 00:04:23;;;;;;;39.40;24.38;;;;;;;;;;5034721;28;20111;-68
2023/03/22 00:06:48;;;;;;;45.03;25.58;;;;;;;;;;5034394;28;20080;-68
2023/03/22 00:09:13;;;;;;;44.38;27.08;;;;;;;;;;5034879;28;20028;-68
2023/03/22 00:11:39;;;;;;;39.10;23.52;;;;;;;;;;5034574;28;20025;-68
2023/03/22 00:14:05;;;;;;;39.95;25.23;;;;;;;;;;5034482;28;20022;-68
2023/03/22 00:16:30;;;;;;;41.13;23.50;;;;;;;;;;5034489;28;20029;-68
2023/03/22 00:18:56;;;;;;;45.25;25.35;;;;;;;;;;5034449;28;20029;-68
2023/03/22 00:21:21;;;;;;;40.28;24.05;;;;;;;;;;5034273;28;20029;-68
2023/03/22 00:23:46;;;;;;;39.35;23.80;;;;;;;;;;5016424;28;20382;-68
2023/03/22 00:26:13;;;;;;;40.67;24.88;;;;;;;;;;5034463;28;20100;-68
2023/03/22 00:28:39;;;;;;;39.97;22.73;;;;;;;;;;5034259;28;20026;-68
2023/03/22 00:31:05;;;;;;;38.70;23.63;;;;;;;;;;5034517;28;20033;-70
2023/03/22 00:33:31;;;;;;;38.60;23.20;;;;;;;;;;5034142;28;20029;-69
2023/03/22 00:36:03;;;;;;;36.65;21.58;;;;;;;;;;5030992;28;20030;-69
2023/03/22 00:38:37;;;;;;;39.75;23.77;;;;;;;;;;5014139;28;20497;-69
2023/03/22 00:41:15;;;;;;;41.47;23.75;;;;;;;;;;5014358;28;20127;-69
2023/03/22 00:43:40;;;;;;;41.17;24.20;;;;;;;;;;5014193;28;20026;-69
2023/03/22 00:46:06;;;;;;;39.58;23.33;;;;;;;;;;5014174;28;20486;-69
2023/03/22 00:48:32;;;;;;;38.40;23.42;;;;;;;;;;5013863;28;20021;-69
2023/03/22 00:50:57;;;;;;;38.67;23.10;;;;;;;;;;5013774;28;20400;-69
2023/03/22 00:53:23;;;;;;;36.03;22.73;;;;;;;;;;5025082;28;20171;-69
2023/03/22 00:55:49;;;;;;;40.35;25.13;;;;;;;;;;5033602;28;20028;-69
2023/03/22 00:58:14;;;;;;;39.60;24.42;;;;;;;;;;5033621;28;20033;-69
2023/03/22 01:00:40;;;;;;;44.28;26.50;;;;;;;;;;5033568;28;20489;-69
2023/03/22 01:03:05;;;;;;;43.85;27.23;;;;;;;;;;5033334;28;20498;-68
2023/03/22 01:05:32;;;;;;;45.15;26.80;;;;;;;;;;5033531;28;20383;-69
2023/03/22 01:08:07;;;;;;;51.33;27.98;;;;;;;;;;5033520;28;20029;-69
2023/03/22 01:10:36;;;;;;;47.92;26.10;;;;;;;;;;5033504;28;20029;-68
2023/03/22 01:13:01;;;;;;;49.38;27.60;;;;;;;;;;5033504;28;20029;-69
2023/03/22 01:15:27;;;;;;;48.90;28.17;;;;;;;;;;5033483;28;20482;-69
2023/03/22 01:17:52;;;;;;;53.25;27.67;;;;;;;;;;5033054;28;20057;-69
2023/03/22 01:20:18;;;;;;;46.60;27.85;;;;;;;;;;5033273;28;20064;-69
2023/03/22 01:22:44;;;;;;;50.03;28.42;;;;;;;;;;5015528;28;20040;-69
2023/03/22 01:25:09;;;;;;;49.33;28.35;;;;;;;;;;5033229;28;20022;-69
2023/03/22 01:27:35;;;;;;;49.17;27.80;;;;;;;;;;5033181;28;20025;-69
2023/03/22 01:30:01;;;;;;;46.28;27.08;;;;;;;;;;5033166;28;20493;-69
2023/03/22 01:32:26;;;;;;;44.58;25.85;;;;;;;;;;5032884;28;20021;-69
2023/03/22 01:34:52;;;;;;;48.95;27.45;;;;;;;;;;5033057;28;20083;-69
2023/03/22 01:37:18;;;;;;;46.92;26.73;;;;;;;;;;5033008;28;20029;-69
2023/03/22 01:39:43;;;;;;;50.35;27.83;;;;;;;;;;5032823;28;20061;-69
2023/03/22 01:42:15;;;;;;;49.05;27.88;;;;;;;;;;5032903;28;20064;-69
2023/03/22 01:44:43;;;;;;;47.28;27.10;;;;;;;;;;5032899;28;20022;-69
2023/03/22 01:47:10;;;;;;;45.80;26.83;;;;;;;;;;5032472;28;20079;-69
2023/03/22 01:49:36;;;;;;;49.83;26.85;;;;;;;;;;5032803;28;20040;-69
2023/03/22 01:52:10;;;;;;;48.08;26.35;;;;;;;;;;5032448;28;20044;-69
2023/03/22 01:54:43;;;;;;;48.72;27.45;;;;;;;;;;5032716;28;20052;-69
2023/03/22 01:57:10;;;;;;;52.42;29.88;;;;;;;;;;5032674;28;20021;-69
2023/03/22 01:59:35;;;;;;;55.88;30.25;;;;;;;;;;5032622;28;20109;-69
2023/03/22 02:02:02;;;;;;;50.15;28.52;;;;;;;;;;5014677;28;20112;-69
2023/03/22 02:04:34;;;;;;;58.67;30.02;;;;;;;;;;5032721;28;20021;-70
2023/03/22 02:07:08;;;;;;;63.33;30.48;;;;;;;;;;5032649;28;20021;-69
2023/03/22 02:09:38;;;;;;;64.47;30.67;;;;;;;;;;5032556;28;20445;-69
2023/03/22 02:12:12;;;;;;;68.17;31.80;;;;;;;;;;5032403;28;20100;-67
2023/03/22 02:15:04;;;;;;;65.72;30.38;;;;;;;;;;5032543;28;20021;-67
2023/03/22 02:17:41;;;;;;;68.65;31.42;;;;;;;;;;5033188;28;20066;-68
2023/03/22 02:20:09;;;;;;;72.07;32.17;;;;;;;;;;5038929;28;20029;-68
2023/03/22 02:22:40;;;;;;;69.05;30.52;;;;;;;;;;5038931;28;20037;-67
2023/03/22 02:25:30;;;;;;;60.67;29.17;;;;;;;;;;5039127;28;20068;-68
2023/03/22 02:28:14;;;;;;;61.08;29.38;;;;;;;;;;5038747;28;20491;-68
2023/03/22 02:31:07;;;;;;;61.63;28.48;;;;;;;;;;5038767;28;20017;-68
2023/03/22 02:34:02;;;;;;;53.40;27.83;;;;;;;;;;5039161;28;20029;-69
2023/03/22 02:37:04;;;;;;;55.47;27.38;;;;;;;;;;5039092;28;20447;-69
2023/03/22 02:39:39;;;;;;;52.88;27.30;;;;;;;;;;5038937;28;20053;-68
2023/03/22 02:42:15;;;;;;;57.55;28.08;;;;;;;;;;5038859;28;20061;-69
2023/03/22 02:44:40;;;;;;;47.83;26.95;;;;;;;;;;5038692;28;20449;-69
2023/03/22 02:47:47;;;;;;;48.17;28.00;;;;;;;;;;5038956;28;20059;-68
2023/03/22 02:50:19;;;;;;;53.50;27.58;;;;;;;;;;5031905;28;20445;-68
2023/03/22 02:52:55;;;;;;;48.17;28.15;;;;;;;;;;5038483;28;20053;-69
2023/03/22 02:55:30;;;;;;;48.22;25.70;;;;;;;;;;5038838;28;20034;-68
2023/03/22 02:58:36;;;;;;;50.15;26.60;;;;;;;;;;5038656;28;20026;-69
2023/03/22 03:01:08;;;;;;;46.53;27.55;;;;;;;;;;4939101;29;20043;-68
2023/03/22 03:03:36;;;;;;;50.28;27.70;;;;;;;;;;4939313;29;20047;-68
2023/03/22 03:06:11;;;;;;;49.15;28.48;;;;;;;;;;4939225;29;20398;-68
2023/03/22 03:08:39;;;;;;;48.92;27.58;;;;;;;;;;4939065;29;20475;-69
2023/03/22 03:11:05;;;;;;;49.25;28.67;;;;;;;;;;4939242;29;20421;-68
2023/03/22 03:13:31;;;;;;;46.38;27.10;;;;;;;;;;4938916;29;20087;-68
2023/03/22 03:15:58;;;;;;;46.78;27.40;;;;;;;;;;4938908;29;20048;-68
2023/03/22 03:18:36;;;;;;;52.50;28.33;;;;;;;;;;4938960;29;20127;-69
2023/03/22 03:21:16;;;;;;;47.50;28.08;;;;;;;;;;4939213;29;20031;-69
2023/03/22 03:24:00;;;;;;;;;;;;;;;;;;4939383;29;20063;-68
2023/03/22 03:26:56;;;;;;;47.53;25.75;;;;;;;;;;4939096;29;20257;-69
2023/03/22 03:29:36;;;;;;;44.45;24.63;;;;;;;;;;4906468;29;20536;-69
2023/03/22 03:32:34;;;;;;;45.38;26.85;;;;;;;;;;4936128;29;20518;-70
2023/03/22 03:35:09;;;;;;;47.75;27.17;;;;;;;;;;4988857;28;20045;-70
2023/03/22 03:37:46;;;;;;;50.40;26.95;;;;;;;;;;5035334;28;20025;-69
2023/03/22 03:40:19;;;;;;;45.72;27.13;;;;;;;;;;5035351;28;20056;-69
2023/03/22 03:42:50;;;;;;;49.45;27.67;;;;;;;;;;5034794;28;20034;-69
2023/03/22 03:45:17;;;;;;;49.72;27.45;;;;;;;;;;5035183;28;20036;-69
2023/03/22 03:47:45;;;;;;;48.88;26.38;;;;;;;;;;5034978;28;20021;-69
2023/03/22 03:50:14;;;;;;;49.70;27.15;;;;;;;;;;5035119;28;20026;-69
2023/03/22 03:52:40;;;;;;;49.17;27.30;;;;;;;;;;5034565;28;20064;-69
2023/03/22 03:55:06;;;;;;;45.40;25.95;;;;;;;;;;5034934;28;20494;-69
2023/03/22 03:57:31;;;;;;;48.30;27.38;;;;;;;;;;5034615;28;20061;-70
2023/03/22 03:59:57;;;;;;;44.72;26.98;;;;;;;;;;5034731;28;20049;-69
2023/03/22 04:02:22;;;;;;;49.05;27.27;;;;;;;;;;5034847;28;20431;-69
2023/03/22 04:04:47;;;;;;;49.75;26.42;;;;;;;;;;5034675;28;20034;-69
2023/03/22 04:07:13;;;;;;;49.72;27.45;;;;;;;;;;5034563;28;20029;-70
2023/03/22 04:09:39;;;;;;;45.83;26.60;;;;;;;;;;5034780;28;20060;-69
2023/03/22 04:12:05;;;;;;;46.42;26.58;;;;;;;;;;5034437;28;20033;-69
2023/03/22 04:14:30;;;;;;;44.67;25.08;;;;;;;;;;5034581;28;20457;-69
2023/03/22 04:16:56;;;;;;;46.25;26.27;;;;;;;;;;5034651;28;20051;-69
2023/03/22 04:19:21;;;;;;;41.80;24.90;;;;;;;;;;5034379;28;20049;-69
2023/03/22 04:21:47;;;;;;;41.88;25.73;;;;;;;;;;5034099;28;20493;-69
2023/03/22 04:24:13;;;;;;;45.00;25.42;;;;;;;;;;5034535;28;20025;-69
2023/03/22 04:26:39;;;;;;;42.90;25.38;;;;;;;;;;5034035;28;20108;-69
2023/03/22 04:29:05;;;;;;;45.05;25.77;;;;;;;;;;5034271;28;20104;-69
2023/03/22 04:31:32;;;;;;;47.28;27.05;;;;;;;;;;5034337;28;20025;-69
2023/03/22 04:34:04;;;;;;;47.28;28.25;;;;;;;;;;5033995;28;20029;-69
2023/03/22 04:36:35;;;;;;;60.00;30.15;;;;;;;;;;5034000;28;20021;-69
2023/03/22 04:39:04;;;;;;;60.30;30.27;;;;;;;;;;5017130;28;20034;-69
2023/03/22 04:41:30;;;;;;;52.85;28.25;;;;;;;;;;5033464;28;20461;-69
2023/03/22 04:43:56;;;;;;;61.25;30.23;;;;;;;;;;5033655;28;20109;-69
2023/03/22 04:46:23;;;;;;;58.65;29.95;;;;;;;;;;5034019;28;20029;-70
2023/03/22 04:48:48;;;;;;;55.53;29.00;;;;;;;;;;5033746;28;20030;-70
2023/03/22 04:51:14;;;;;;;55.53;28.38;;;;;;;;;;5033701;28;20088;-70
2023/03/22 04:53:39;;;;;;;56.90;27.48;;;;;;;;;;5033532;28;20037;-69
2023/03/22 04:56:07;;;;;;;51.30;28.02;;;;;;;;;;5033473;28;20109;-69
2023/03/22 04:58:35;;;;;;;54.35;28.15;;;;;;;;;;5033463;28;20026;-69
2023/03/22 05:01:00;;;;;;;57.08;29.80;;;;;;;;;;5033733;28;20028;-69
2023/03/22 05:03:26;;;;;;;52.10;28.95;;;;;;;;;;5033620;28;20029;-69
2023/03/22 05:05:54;;;;;;;52.97;28.30;;;;;;;;;;5033485;28;20021;-69
2023/03/22 05:08:21;;;;;;;53.75;28.30;;;;;;;;;;5033362;28;20083;-69
2023/03/22 05:10:47;;;;;;;53.33;27.08;;;;;;;;;;5033263;28;20040;-70
2023/03/22 05:13:12;;;;;;;47.05;26.25;;;;;;;;;;5033513;28;20018;-70
2023/03/22 05:15:38;;;;;;;50.88;27.65;;;;;;;;;;5033383;28;20036;-69
2023/03/22 05:18:04;;;;;;;45.80;27.60;;;;;;;;;;5033390;28;20514;-69
2023/03/22 05:20:29;;;;;;;50.22;27.88;;;;;;;;;;5033364;28;20148;-70
2023/03/22 05:22:55;;;;;;;52.38;28.27;;;;;;;;;;5033200;28;20131;-69
2023/03/22 05:25:21;;;;;;;45.83;25.45;;;;;;;;;;5032844;28;20017;-69
2023/03/22 05:27:49;;;;;;;46.78;26.60;;;;;;;;;;5033039;28;20350;-69
2023/03/22 05:30:15;;;;;;;52.17;28.27;;;;;;;;;;5033179;28;20332;-69
2023/03/22 05:32:42;;;;;;;42.70;23.17;;;;;;;;;;5033118;28;20053;-69
2023/03/22 05:35:08;;;;;;;44.58;26.02;;;;;;;;;;5032945;28;20032;-70
2023/03/22 05:37:34;;;;;;;47.17;26.75;;;;;;;;;;5033094;28;20026;-70
2023/03/22 05:39:59;;;;;;;52.83;27.02;;;;;;;;;;5032674;28;20079;-69
2023/03/22 05:42:25;;;;;;;61.28;30.77;;;;;;;;;;5015038;28;20048;-69
2023/03/22 05:44:51;;;;;;;61.58;30.17;;;;;;;;;;5032692;28;20139;-70
2023/03/22 05:47:16;;;;;;;70.65;31.65;;;;;;;;;;5033002;28;20017;-70
2023/03/22 05:49:41;;;;;;;70.57;29.60;;;;;;;;;;5032586;28;20455;-69
2023/03/22 05:52:07;;;;;;;91.35;33.13;;;;;;;;;;5032055;28;20080;-70
2023/03/22 05:54:33;;;;;;;85.20;32.78;;;;;;;;;;5032226;28;20040;-69
2023/03/22 05:56:58;;;;;;;93.22;33.28;;;;;;;;;;5032636;28;20029;-70
2023/03/22 05:59:24;;;;;;;113.18;36.13;;;;;;;;;;5032696;28;20068;-69
2023/03/22 06:01:49;;;;;;;84.45;35.40;;;;;;;;;;5032575;28;20025;-69
2023/03/22 06:04:15;;;;;;;91.82;34.72;;;;;;;;;;5032586;28;20057;-70
2023/03/22 06:06:40;;;;;;;89.53;34.33;;;;;;;;;;5032559;28;20536;-69
2023/03/22 06:09:06;;;;;;;91.13;34.80;;;;;;;;;;5032070;28;20018;-69
2023/03/22 06:11:34;;;;;;;79.38;34.03;;;;;;;;;;5032491;28;20033;-69
2023/03/22 06:14:00;;;;;;;83.05;32.95;;;;;;;;;;5032478;28;20049;-69
2023/03/22 06:16:25;;;;;;;88.78;33.17;;;;;;;;;;5032467;28;20033;-68
2023/03/22 06:18:51;;;;;;;90.50;35.08;;;;;;;;;;5032379;28;20379;-68
2023/03/22 06:21:16;;;;;;;77.78;33.92;;;;;;;;;;5032201;28;20028;-68
2023/03/22 06:23:42;;;;;;;86.70;34.50;;;;;;;;;;5031928;28;20064;-70
2023/03/22 06:26:10;;;;;;;80.18;32.95;;;;;;;;;;5032107;28;20049;-70
2023/03/22 06:28:36;;;;;;;79.82;34.53;;;;;;;;;;5031835;28;20246;-70
2023/03/22 06:31:06;;;;;;;74.18;31.55;;;;;;;;;;5032227;28;20468;-70
2023/03/22 06:33:31;;;;;;;75.50;33.10;;;;;;;;;;5032285;28;20502;-69
2023/03/22 06:35:58;;;;;;;66.70;32.03;;;;;;;;;;5032215;28;20112;-69
2023/03/22 06:38:24;;;;;;;62.00;30.85;;;;;;;;;;5032028;28;20061;-69
2023/03/22 06:40:49;;;;;;;75.15;33.50;;;;;;;;;;5032270;28;20060;-69
2023/03/22 06:43:15;;;;;;;65.13;31.95;;;;;;;;;;5031857;28;20036;-70
2023/03/22 06:45:40;;;;;;;73.65;33.58;;;;;;;;;;5032105;28;20033;-69
2023/03/22 06:48:06;;;;;;;69.60;34.90;;;;;;;;;;5032020;28;20049;-69
2023/03/22 06:50:32;;;;;;;67.13;33.40;;;;;;;;;;5032123;28;20021;-70
2023/03/22 06:52:57;;;;;;;67.57;33.75;;;;;;;;;;5031632;28;20077;-70
2023/03/22 06:55:23;;;;;;;63.78;33.58;;;;;;;;;;5032330;28;20483;-69
2023/03/22 06:57:49;;;;;;;65.93;35.10;;;;;;;;;;5031824;28;20077;-69
2023/03/22 07:00:15;;;;;;;64.65;32.22;;;;;;;;;;5032066;28;20379;-69
2023/03/22 07:02:40;;;;;;;60.67;32.95;;;;;;;;;;5032084;28;20053;-69
2023/03/22 07:05:06;;;;;;;62.67;32.45;;;;;;;;;;5034805;28;20559;-69
2023/03/22 07:07:32;;;;;;;61.47;32.20;;;;;;;;;;5034754;28;20021;-69
2023/03/22 07:09:57;;;;;;;61.33;30.92;;;;;;;;;;5015779;28;20022;-69
2023/03/22 07:12:23;;;;;;;52.75;29.17;;;;;;;;;;5015927;28;20061;-69
2023/03/22 07:14:48;;;;;;;56.38;32.47;;;;;;;;;;5015845;28;20026;-69
2023/03/22 07:17:14;;;;;;;53.75;30.45;;;;;;;;;;5015905;28;20084;-69
2023/03/22 07:19:41;;;;;;;51.40;30.15;;;;;;;;;;5015819;28;20542;-69
2023/03/22 07:22:07;;;;;;;53.03;28.50;;;;;;;;;;5015380;28;20053;-69
2023/03/22 07:24:32;;;;;;;54.28;29.30;;;;;;;;;;5015566;28;20022;-69
2023/03/22 07:26:57;;;;;;;40.88;24.35;;;;;;;;;;5015657;28;20036;-69
2023/03/22 07:29:23;;;;;;;43.17;25.10;;;;;;;;;;5015650;28;20033;-69
2023/03/22 07:31:48;;;;;;;48.05;26.63;;;;;;;;;;5015562;28;20111;-69
2023/03/22 07:34:15;;;;;;;34.30;21.95;;;;;;;;;;5015498;28;20364;-69
2023/03/22 07:36:40;;;;;;;44.25;27.25;;;;;;;;;;5015112;28;20032;-69
2023/03/22 07:39:06;;;;;;;40.17;25.10;;;;;;;;;;5015344;28;20477;-69
2023/03/22 07:41:31;;;;;;;31.10;18.15;;;;;;;;;;5015299;28;20036;-69
2023/03/22 07:43:57;;;;;;;35.35;20.05;;;;;;;;;;5015357;28;20149;-69
2023/03/22 07:46:22;;;;;;;43.63;22.02;;;;;;;;;;5015389;28;20034;-69
2023/03/22 07:48:48;;;;;;;33.63;21.33;;;;;;;;;;5015013;28;20099;-69
2023/03/22 07:51:14;;;;;;;33.88;20.33;;;;;;;;;;5028108;28;20432;-69
2023/03/22 07:53:39;;;;;;;37.08;21.35;;;;;;;;;;5034748;28;20034;-69
2023/03/22 07:56:05;;;;;;;36.97;23.13;;;;;;;;;;5035014;28;20044;-69
2023/03/22 07:58:31;;;;;;;33.50;20.17;;;;;;;;;;5034833;28;20071;-70
2023/03/22 08:00:57;;;;;;;34.33;21.63;;;;;;;;;;5026200;28;20038;-70
2023/03/22 08:03:22;;;;;;;36.50;21.55;;;;;;;;;;5008762;28;20026;-69
2023/03/22 08:05:48;;;;;;;36.17;19.92;;;;;;;;;;4999025;28;20041;-70
2023/03/22 08:08:13;;;;;;;30.73;19.40;;;;;;;;;;5014335;28;20018;-69
2023/03/22 08:10:39;;;;;;;29.17;18.80;;;;;;;;;;5014470;28;20538;-69
2023/03/22 08:13:04;;;;;;;26.92;19.10;;;;;;;;;;5014505;28;20087;-70
2023/03/22 08:15:30;;;;;;;32.13;20.27;;;;;;;;;;5013794;28;20030;-70
2023/03/22 08:17:59;;;;;;;27.27;17.85;;;;;;;;;;5014419;28;20038;-70
2023/03/22 08:20:26;;;;;;;28.55;19.20;;;;;;;;;;5014411;28;20126;-70
2023/03/22 08:22:52;;;;;;;25.08;16.85;;;;;;;;;;5013886;28;20092;-70
2023/03/22 08:25:18;;;;;;;28.70;18.27;;;;;;;;;;5014099;28;20026;-70
2023/03/22 08:27:43;;;;;;;24.60;17.25;;;;;;;;;;5014278;28;20417;-69
2023/03/22 08:30:09;;;;;;;25.38;16.58;;;;;;;;;;5014223;28;20084;-69
2023/03/22 08:32:35;;;;;;;24.95;15.63;;;;;;;;;;5013690;28;20026;-69
2023/03/22 08:35:00;;;;;;;29.95;19.98;;;;;;;;;;5014163;28;20105;-69
2023/03/22 08:37:26;;;;;;;23.25;13.75;;;;;;;;;;5013766;28;20099;-70
2023/03/22 08:39:51;;;;;;;27.90;16.85;;;;;;;;;;5013845;28;20029;-69
2023/03/22 08:42:17;;;;;;;21.83;14.55;;;;;;;;;;4996377;28;20026;-69
2023/03/22 08:44:42;;;;;;;22.05;16.20;;;;;;;;;;5013622;28;20022;-69
2023/03/22 08:47:07;;;;;;;27.70;16.42;;;;;;;;;;5013414;28;20124;-69
2023/03/22 08:49:33;;;;;;;25.30;14.75;;;;;;;;;;5002404;28;20026;-69
2023/03/22 08:51:59;;;;;;;20.25;13.85;;;;;;;;;;5003530;28;20487;-69
2023/03/22 08:54:26;;;;;;;23.80;15.50;;;;;;;;;;4987228;28;20038;-69
2023/03/22 08:56:52;;;;;;;25.33;15.38;;;;;;;;;;5002445;28;20022;-69
2023/03/22 08:59:18;;;;;;;26.17;15.93;;;;;;;;;;5003998;28;20021;-69
2023/03/22 09:01:44;;;;;;;21.83;14.48;;;;;;;;;;4978942;28;20031;-69
2023/03/22 09:04:10;;;;;;;24.90;15.23;;;;;;;;;;4993127;28;20073;-69
2023/03/22 09:06:36;;;;;;;23.83;15.52;;;;;;;;;;4993775;28;20035;-69
2023/03/22 09:09:02;;;;;;;24.20;14.38;;;;;;;;;;4993930;28;20022;-69
2023/03/22 09:11:28;;;;;;;20.33;14.52;;;;;;;;;;4993948;28;20026;-69
2023/03/22 09:13:53;;;;;;;19.77;11.90;;;;;;;;;;4993798;28;20109;-69
2023/03/22 09:16:18;;;;;;;20.50;14.32;;;;;;;;;;4993613;28;20026;-68
2023/03/22 09:18:44;;;;;;;20.20;11.85;;;;;;;;;;4993662;28;20484;-68
2023/03/22 09:21:10;;;;;;;18.83;13.35;;;;;;;;;;4993691;28;20041;-70
2023/03/22 09:23:36;;;;;;;19.50;14.00;;;;;;;;;;4993585;28;20548;-69
2023/03/22 09:26:04;;;;;;;21.40;14.20;;;;;;;;;;4993538;28;20101;-68
2023/03/22 09:28:30;;;;;;;22.02;12.88;;;;;;;;;;4992404;28;20031;-69
2023/03/22 09:31:04;;;;;;;19.50;12.90;;;;;;;;;;4993300;28;20022;-68
2023/03/22 09:33:29;;;;;;;17.48;11.18;;;;;;;;;;4976262;28;20053;-68
2023/03/22 09:35:55;;;;;;;15.52;11.07;;;;;;;;;;4993384;28;20066;-68
2023/03/22 09:38:22;;;;;;;23.23;11.95;;;;;;;;;;4993522;28;20515;-68
2023/03/22 09:41:18;;;;;;;15.30;10.93;;;;;;;;;;4993353;28;20092;-69
2023/03/22 09:44:00;;;;;;;15.45;10.65;;;;;;;;;;4993278;28;20376;-68
2023/03/22 09:46:33;;;;;;;18.38;11.07;;;;;;;;;;4992966;28;20129;-68
2023/03/22 09:49:01;;;;;;;17.10;10.82;;;;;;;;;;4993024;28;20096;-68
2023/03/22 09:51:51;;;;;;;15.13;10.18;;;;;;;;;;4993050;28;20042;-68
2023/03/22 09:54:23;;;;;;;15.00;9.98;;;;;;;;;;5011399;28;20042;-69
2023/03/22 09:57:14;;;;;;;13.30;9.27;;;;;;;;;;4995025;28;20030;-69
2023/03/22 09:59:51;;;;;;;14.90;9.70;;;;;;;;;;5012377;28;20022;-69
2023/03/22 10:02:40;;;;;;;14.98;10.02;;;;;;;;;;5012558;28;20033;-69
2023/03/22 10:05:19;;;;;;;15.18;9.88;;;;;;;;;;5012680;28;20047;-69
2023/03/22 10:08:18;;;;;;;25.55;10.43;;;;;;;;;;5012412;28;20494;-69
2023/03/22 10:10:44;;;;;;;14.30;9.60;;;;;;;;;;5012493;28;20034;-69
2023/03/22 10:13:20;;;;;;;14.23;9.60;;;;;;;;;;5012504;28;20105;-68
2023/03/22 10:15:51;;;;;;;14.75;9.68;;;;;;;;;;5012351;28;20033;-69
2023/03/22 10:18:19;;;;;;;15.38;9.63;;;;;;;;;;5012482;28;20053;-69
2023/03/22 10:21:01;;;;;;;15.85;9.70;;;;;;;;;;5012674;28;20392;-69
2023/03/22 10:23:41;;;;;;;12.95;8.65;;;;;;;;;;5012396;28;20537;-68
2023/03/22 10:26:12;;;;;;;16.95;9.32;;;;;;;;;;5012520;28;20041;-69
2023/03/22 10:28:41;;;;;;;16.92;9.98;;;;;;;;;;5012011;28;20025;-69
2023/03/22 10:31:14;;;;;;;14.85;9.48;;;;;;;;;;5012452;28;20026;-69
2023/03/22 10:33:50;;;;;;;13.40;9.07;;;;;;;;;;5012332;28;20026;-69
2023/03/22 10:36:19;;;;;;;11.05;8.88;;;;;;;;;;5011496;28;20483;-68
2023/03/22 10:38:49;;;;;;;20.42;9.98;;;;;;;;;;5011780;28;20040;-68
2023/03/22 10:41:17;;;;;;;18.75;11.35;;;;;;;;;;5015176;28;20037;-68
2023/03/22 10:43:44;;;;;;;21.50;11.75;;;;;;;;;;5015822;28;20084;-69
2023/03/22 10:46:25;;;;;;;17.13;10.80;;;;;;;;;;5016058;28;20426;-69
2023/03/22 10:48:51;;;;;;;;;;;;;;;;;;5016169;28;20053;-69
2023/03/22 10:51:25;;;;;;;14.13;8.10;;;;;;;;;;5016033;28;19957;-68
2023/03/22 10:53:53;;;;;;;17.48;9.05;;;;;;;;;;5030653;28;20033;-69
2023/03/22 10:56:20;;;;;;;13.40;8.38;;;;;;;;;;5034861;28;20064;-69
2023/03/22 10:58:47;;;;;;;15.32;9.65;;;;;;;;;;4995218;28;20034;-69
2023/03/22 11:01:15;;;;;;;13.32;8.75;;;;;;;;;;4994600;28;20077;-69
2023/03/22 11:03:42;;;;;;;14.23;9.30;;;;;;;;;;4994947;28;20400;-70
2023/03/22 11:06:19;;;;;;;15.30;9.55;;;;;;;;;;4993883;28;20030;-69
2023/03/22 11:09:18;;;;;;;17.15;9.82;;;;;;;;;;4995017;28;20041;-69
2023/03/22 11:11:55;;;;;;;13.77;7.85;;;;;;;;;;4995023;28;20042;-69
2023/03/22 11:14:31;;;;;;;15.27;8.52;;;;;;;;;;4994655;28;20487;-69
2023/03/22 11:17:05;;;;;;;15.55;8.77;;;;;;;;;;4994699;28;20042;-69
2023/03/22 11:19:51;;;;;;;16.35;9.73;;;;;;;;;;4994375;28;20488;-69
2023/03/22 11:22:53;;;;;;;11.85;8.25;;;;;;;;;;4994556;28;20027;-69
2023/03/22 11:25:26;;;;;;;12.65;7.50;;;;;;;;;;4976145;28;20042;-69
2023/03/22 11:27:55;;;;;;;11.43;7.90;;;;;;;;;;5012091;28;20061;-69
2023/03/22 11:30:24;;;;;;;19.38;8.57;;;;;;;;;;5015126;28;20022;-70
2023/03/22 11:33:07;;;;;;;18.08;8.68;;;;;;;;;;5015035;28;20384;-69
2023/03/22 11:35:36;;;;;;;18.00;8.68;;;;;;;;;;5015169;28;20025;-70
2023/03/22 11:38:03;;;;;;;15.27;8.18;;;;;;;;;;5014971;28;20022;-69
2023/03/22 11:40:32;;;;;;;14.10;8.13;;;;;;;;;;4997704;28;20496;-69
2023/03/22 11:43:09;;;;;;;12.27;9.00;;;;;;;;;;5014918;28;20029;-69
2023/03/22 11:45:39;;;;;;;13.07;8.75;;;;;;;;;;5015162;28;20679;-70
2023/03/22 11:48:08;;;;;;;16.58;8.02;;;;;;;;;;5014988;28;20022;-69
2023/03/22 11:50:36;;;;;;;12.45;8.50;;;;;;;;;;5013829;28;20030;-69
2023/03/22 11:53:05;;;;;;;12.57;8.57;;;;;;;;;;5022962;28;20402;-69
2023/03/22 11:55:33;;;;;;;12.02;8.57;;;;;;;;;;5034436;28;20029;-69
2023/03/22 11:58:02;;;;;;;16.92;8.60;;;;;;;;;;5034054;28;20553;-69
2023/03/22 12:00:31;;;;;;;16.70;9.23;;;;;;;;;;5034567;28;20367;-69
2023/03/22 12:03:04;;;;;;;14.05;8.70;;;;;;;;;;5034353;28;20036;-69
2023/03/22 12:05:37;;;;;;;17.10;9.18;;;;;;;;;;5034310;28;20032;-69
2023/03/22 12:08:10;;;;;;;22.05;8.93;;;;;;;;;;5034304;28;20475;-69
2023/03/22 12:10:42;;;;;;;16.50;9.18;;;;;;;;;;5034200;28;20045;-69
2023/03/22 12:13:28;;;;;;;13.38;9.18;;;;;;;;;;5034351;28;20494;-69
2023/03/22 12:15:57;;;;;;;14.57;9.00;;;;;;;;;;5034218;28;20037;-69
2023/03/22 12:18:32;;;;;;;12.67;8.50;;;;;;;;;;5034262;28;20022;-69
2023/03/22 12:20:59;;;;;;;13.70;9.27;;;;;;;;;;5033767;28;20797;-70
2023/03/22 12:23:30;;;;;;;13.30;9.02;;;;;;;;;;5034166;28;20029;-69
2023/03/22 12:26:07;;;;;;;17.13;9.80;;;;;;;;;;5033748;28;20112;-69
2023/03/22 12:28:39;;;;;;;15.68;9.25;;;;;;;;;;5034065;28;20417;-69
2023/03/22 12:31:10;;;;;;;16.63;9.80;;;;;;;;;;5016237;28;20079;-69
2023/03/22 12:33:46;;;;;;;15.23;9.68;;;;;;;;;;5034073;28;20053;-68
2023/03/22 12:36:18;;;;;;;19.13;9.68;;;;;;;;;;5033922;28;20053;-68
2023/03/22 12:38:55;;;;;;;12.10;9.20;;;;;;;;;;5033774;28;20021;-68
2023/03/22 12:41:43;;;;;;;14.20;8.95;;;;;;;;;;5033555;28;20071;-68
2023/03/22 12:44:21;;;;;;;19.35;8.95;;;;;;;;;;5033815;28;20072;-68
2023/03/22 12:46:57;;;;;;;16.40;10.40;;;;;;;;;;5033630;28;20479;-71
2023/03/22 12:49:46;;;;;;;13.82;9.48;;;;;;;;;;5015587;28;20025;-70
2023/03/22 12:52:14;;;;;;;15.50;10.05;;;;;;;;;;5033227;28;20037;-68
2023/03/22 12:54:41;;;;;;;18.25;9.82;;;;;;;;;;5033376;28;20052;-68
2023/03/22 12:57:07;;;;;;;14.73;9.73;;;;;;;;;;5033579;28;20437;-68
2023/03/22 12:59:33;;;;;;;14.55;9.82;;;;;;;;;;5033437;28;20508;-68
2023/03/22 13:02:15;;;;;;;13.20;9.73;;;;;;;;;;5033022;28;20033;-68
2023/03/22 13:04:44;;;;;;;14.68;8.85;;;;;;;;;;5033347;28;20029;-68
2023/03/22 13:07:12;;;;;;;19.23;9.40;;;;;;;;;;5033030;28;20417;-68
2023/03/22 13:09:48;;;;;;;15.77;9.30;;;;;;;;;;5033151;28;20481;-68
2023/03/22 13:12:16;;;;;;;12.77;8.48;;;;;;;;;;5033433;28;20447;-68
2023/03/22 13:14:48;;;;;;;14.55;9.18;;;;;;;;;;5032928;28;20032;-68
2023/03/22 13:17:38;;;;;;;14.75;7.93;;;;;;;;;;5033087;28;20533;-68
2023/03/22 13:20:06;;;;;;;12.88;8.10;;;;;;;;;;5033059;28;20467;-68
2023/03/22 13:22:35;;;;;;;17.75;8.93;;;;;;;;;;5032465;28;20032;-68
2023/03/22 13:25:04;;;;;;;14.27;8.65;;;;;;;;;;5015181;28;20120;-68
2023/03/22 13:27:38;;;;;;;16.90;8.45;;;;;;;;;;5032858;28;20128;-68
2023/03/22 13:30:29;;;;;;;17.92;9.32;;;;;;;;;;5032941;28;20087;-68
2023/03/22 13:33:02;;;;;;;16.02;8.70;;;;;;;;;;4933398;29;20123;-68
2023/03/22 13:35:41;;;;;;;10.45;7.07;;;;;;;;;;4933292;29;20039;-68
2023/03/22 13:38:13;;;;;;;10.68;7.93;;;;;;;;;;4933204;29;20044;-68
2023/03/22 13:41:05;;;;;;;16.70;8.35;;;;;;;;;;4933154;29;20024;-68
2023/03/22 13:43:54;;;;;;;12.23;7.32;;;;;;;;;;4895191;29;20044;-68
2023/03/22 13:46:19;;;;;;;9.18;6.45;;;;;;;;;;4895643;29;20032;-69
2023/03/22 13:48:45;;;;;;;13.57;7.70;;;;;;;;;;4895209;29;20036;-69
2023/03/22 13:51:25;;;;;;;10.68;6.95;;;;;;;;;;4889077;29;20060;-69
2023/03/22 13:53:56;;;;;;;11.82;7.55;;;;;;;;;;4890351;29;20070;-69
2023/03/22 13:56:40;;;;;;;15.77;7.95;;;;;;;;;;4894837;29;20052;-69
2023/03/22 13:59:17;;;;;;;10.32;6.50;;;;;;;;;;4895145;29;20071;-69
2023/03/22 14:01:49;;;;;;;9.20;6.43;;;;;;;;;;4895211;29;20040;-69
2023/03/22 14:04:21;;;;;;;12.82;6.97;;;;;;;;;;4895134;29;20439;-69
2023/03/22 14:07:19;;;;;;;9.43;6.25;;;;;;;;;;4894857;29;20044;-69
2023/03/22 14:09:49;;;;;;;11.02;7.20;;;;;;;;;;4928622;28;20034;-69
2023/03/22 14:12:44;;;;;;;10.57;6.13;;;;;;;;;;4971416;28;20113;-69
2023/03/22 14:15:15;;;;;;;10.55;6.78;;;;;;;;;;4970623;28;20042;-69
2023/03/22 14:17:45;;;;;;;8.77;5.93;;;;;;;;;;4970984;28;20139;-69
2023/03/22 14:20:15;;;;;;;9.50;6.40;;;;;;;;;;4998113;28;20029;-69
2023/03/22 14:22:47;;;;;;;11.55;6.57;;;;;;;;;;5031859;28;20368;-69
2023/03/22 14:25:18;;;;;;;12.52;6.50;;;;;;;;;;5014335;28;20493;-69
2023/03/22 14:27:44;;;;;;;10.05;6.13;;;;;;;;;;5031895;28;20136;-69
2023/03/22 14:30:34;;;;;;;8.25;5.78;;;;;;;;;;5032122;28;20033;-70
2023/03/22 14:33:14;;;;;;;11.48;6.53;;;;;;;;;;5032013;28;20544;-69
2023/03/22 14:35:42;;;;;;;10.13;6.28;;;;;;;;;;5031670;28;20147;-70
2023/03/22 14:38:15;;;;;;;8.15;4.50;;;;;;;;;;5014852;28;20084;-70
2023/03/22 14:40:40;;;;;;;9.68;5.68;;;;;;;;;;4992776;28;20472;-70